createdAt,value
2024-05-09T00:01:03.437Z,95.10
2024-05-09T00:03:33.717Z,95.00
2024-05-09T00:06:05.987Z,94.90
2024-05-09T00:08:36.478Z,95.00
2024-05-09T00:11:06.918Z,94.90
2024-05-09T00:13:37.300Z,94.80
2024-05-09T00:16:07.929Z,94.80
2024-05-09T00:18:38.273Z,94.70
2024-05-09T00:21:10.058Z,94.70
2024-05-09T00:23:40.923Z,94.70
2024-05-09T00:26:11.679Z,94.80
2024-05-09T00:28:41.798Z,94.90
2024-05-09T00:31:12.114Z,94.90
2024-05-09T00:33:42.826Z,94.80
2024-05-09T00:36:13.166Z,94.70
2024-05-09T00:38:43.364Z,94.60
2024-05-09T00:41:16.325Z,94.50
2024-05-09T00:43:47.133Z,94.40
2024-05-09T00:46:17.300Z,94.50
2024-05-09T00:48:48.095Z,94.90
2024-05-09T00:51:18.751Z,95.00
2024-05-09T00:53:49.417Z,94.90
2024-05-09T00:56:20.185Z,94.80
2024-05-09T00:58:52.406Z,94.80
2024-05-09T01:01:25.770Z,94.80
2024-05-09T01:03:56.066Z,94.80
2024-05-09T01:06:26.730Z,94.70
2024-05-09T01:08:57.575Z,94.40
2024-05-09T01:11:27.826Z,94.40
2024-05-09T01:13:58.165Z,94.40
2024-05-09T01:16:28.946Z,94.30
2024-05-09T01:19:00.062Z,94.30
2024-05-09T01:21:31.024Z,94.30
2024-05-09T01:24:01.361Z,94.40
2024-05-09T01:26:32.323Z,94.40
2024-05-09T01:29:03.295Z,94.40
2024-05-09T01:31:34.222Z,94.00
2024-05-09T01:34:04.698Z,94.00
2024-05-09T01:36:35.178Z,94.10
2024-05-09T01:39:06.310Z,94.20
2024-05-09T01:41:36.428Z,94.00
2024-05-09T01:44:06.900Z,94.10
2024-05-09T01:46:37.977Z,94.40
2024-05-09T01:49:08.395Z,94.50
2024-05-09T01:51:39.491Z,94.50
2024-05-09T01:54:09.723Z,94.70
2024-05-09T01:56:40.557Z,94.70
2024-05-09T01:59:11.823Z,94.70
2024-05-09T02:01:56.506Z,94.60
2024-05-09T02:04:28.702Z,94.60
2024-05-09T02:06:59.863Z,94.10
2024-05-09T02:09:30.259Z,94.70
2024-05-09T02:12:00.522Z,94.20
2024-05-09T02:14:31.147Z,94.10
2024-05-09T02:17:04.702Z,94.30
2024-05-09T02:19:35.025Z,94.50
2024-05-09T02:22:05.266Z,94.50
2024-05-09T02:24:36.267Z,94.40
2024-05-09T02:27:07.166Z,94.50
2024-05-09T02:29:38.214Z,94.50
2024-05-09T02:32:08.903Z,94.50
2024-05-09T02:34:39.297Z,94.40
2024-05-09T02:37:10.301Z,94.50
2024-05-09T02:39:38.358Z,94.40
2024-05-09T02:42:08.700Z,95.00
2024-05-09T02:44:36.979Z,95.20
2024-05-09T02:47:08.271Z,95.10
2024-05-09T02:49:36.289Z,95.40
2024-05-09T02:52:06.780Z,95.50
2024-05-09T02:54:34.105Z,95.70
2024-05-09T02:57:04.302Z,95.90
2024-05-09T02:59:31.839Z,96.10
2024-05-09T03:02:02.554Z,96.20
2024-05-09T03:04:30.204Z,96.30
2024-05-09T03:07:00.502Z,96.40
2024-05-09T03:09:28.154Z,96.40
2024-05-09T03:11:59.312Z,96.40
2024-05-09T03:14:26.902Z,96.50
2024-05-09T03:16:57.312Z,96.40
2024-05-09T03:19:26.257Z,96.60
2024-05-09T03:21:56.652Z,96.50
2024-05-09T03:24:24.424Z,96.60
2024-05-09T03:26:54.942Z,96.60
2024-05-09T03:29:22.408Z,96.80
2024-05-09T03:31:52.507Z,96.70
2024-05-09T03:34:20.179Z,96.60
2024-05-09T03:36:51.033Z,96.50
2024-05-09T03:39:21.966Z,96.50
2024-05-09T03:41:52.018Z,96.40
2024-05-09T03:44:22.668Z,96.30
2024-05-09T03:46:50.149Z,96.40
2024-05-09T03:49:22.668Z,96.40
2024-05-09T03:51:50.656Z,96.40
2024-05-09T03:54:21.055Z,96.30
2024-05-09T03:56:49.045Z,96.40
2024-05-09T03:59:19.625Z,96.60
2024-05-09T04:01:47.403Z,96.40
2024-05-09T04:04:17.797Z,96.40
2024-05-09T04:06:45.416Z,96.30
2024-05-09T04:09:15.553Z,96.30
2024-05-09T04:11:42.920Z,96.30
2024-05-09T04:14:13.113Z,96.40
2024-05-09T04:16:40.677Z,96.40
2024-05-09T04:19:11.313Z,96.20
2024-05-09T04:21:38.675Z,96.00
2024-05-09T04:24:08.901Z,96.10
2024-05-09T04:26:36.832Z,96.50
2024-05-09T04:29:07.561Z,96.60
2024-05-09T04:31:37.986Z,96.60
2024-05-09T04:34:08.358Z,96.20
2024-05-09T04:36:36.348Z,96.40
2024-05-09T04:39:06.503Z,96.30
2024-05-09T04:41:35.270Z,96.40
2024-05-09T04:44:05.508Z,96.10
2024-05-09T04:46:32.832Z,96.00
2024-05-09T04:49:03.566Z,96.10
2024-05-09T04:51:31.699Z,96.00
2024-05-09T04:54:02.260Z,95.90
2024-05-09T04:56:30.036Z,95.80
2024-05-09T04:59:01.122Z,95.80
2024-05-09T05:01:29.440Z,95.90
2024-05-09T05:03:59.836Z,95.70
2024-05-09T05:06:27.402Z,95.80
2024-05-09T05:08:57.523Z,95.70
2024-05-09T05:11:24.957Z,95.70
2024-05-09T05:13:55.694Z,95.50
2024-05-09T05:16:23.068Z,95.50
2024-05-09T05:18:53.582Z,95.30
2024-05-09T05:21:21.327Z,95.00
2024-05-09T05:23:51.653Z,94.90
2024-05-09T05:26:20.740Z,94.90
2024-05-09T05:28:51.339Z,94.70
2024-05-09T05:31:19.094Z,94.90
2024-05-09T05:33:52.055Z,94.70
2024-05-09T05:36:19.672Z,94.30
2024-05-09T05:38:50.024Z,94.10
2024-05-09T05:41:18.119Z,93.70
2024-05-09T05:43:48.361Z,93.20
2024-05-09T05:46:15.991Z,94.20
2024-05-09T05:48:46.367Z,94.50
2024-05-09T05:51:13.973Z,94.90
2024-05-09T05:53:44.974Z,95.20
2024-05-09T05:56:12.693Z,95.00
2024-05-09T05:58:43.481Z,94.60
2024-05-09T06:01:12.378Z,94.70
2024-05-09T06:03:43.357Z,95.10
2024-05-09T06:06:14.112Z,94.80
2024-05-09T06:08:45.067Z,94.30
2024-05-09T06:11:12.772Z,93.50
2024-05-09T06:13:46.763Z,92.90
2024-05-09T06:16:14.371Z,93.10
2024-05-09T06:18:44.513Z,92.60
2024-05-09T06:21:12.065Z,91.60
2024-05-09T06:23:53.521Z,92.30
2024-05-09T06:26:21.650Z,93.00
2024-05-09T06:28:51.907Z,93.20
2024-05-09T06:31:19.550Z,92.30
2024-05-09T06:33:50.058Z,92.40
2024-05-09T06:36:18.067Z,91.80
2024-05-09T06:38:48.590Z,91.10
2024-05-09T06:41:16.136Z,90.60
2024-05-09T06:43:46.480Z,91.40
2024-05-09T06:46:14.094Z,92.00
2024-05-09T06:48:48.494Z,91.70
2024-05-09T06:51:16.195Z,90.70
2024-05-09T06:53:46.953Z,90.50
2024-05-09T06:56:14.739Z,89.50
2024-05-09T06:58:45.135Z,88.50
2024-05-09T07:01:12.545Z,87.90
2024-05-09T07:03:49.583Z,88.10
2024-05-09T07:06:17.294Z,88.10
2024-05-09T07:08:48.711Z,88.30
2024-05-09T07:11:16.779Z,87.70
2024-05-09T07:13:47.089Z,86.10
2024-05-09T07:16:14.758Z,85.00
2024-05-09T07:18:45.076Z,86.70
2024-05-09T07:21:13.256Z,86.50
2024-05-09T07:23:46.936Z,86.60
2024-05-09T07:26:15.338Z,86.80
2024-05-09T07:28:46.165Z,88.10
2024-05-09T07:31:14.386Z,87.90
2024-05-09T07:33:45.636Z,87.70
2024-05-09T07:36:13.085Z,88.10
2024-05-09T07:38:43.406Z,88.20
2024-05-09T07:41:11.607Z,87.70
2024-05-09T07:43:41.884Z,87.60
2024-05-09T07:47:13.923Z,86.60
2024-05-09T07:50:35.825Z,87.30
2024-05-09T07:53:17.372Z,87.40
2024-05-09T07:54:38.686Z,88.10
2024-05-09T07:57:06.377Z,87.00
2024-05-09T07:59:38.042Z,88.10
2024-05-09T08:02:06.991Z,87.20
2024-05-09T08:04:37.430Z,87.20
2024-05-09T08:07:05.113Z,87.10
2024-05-09T08:09:38.600Z,86.70
2024-05-09T08:12:09.573Z,85.60
2024-05-09T08:14:39.876Z,84.40
2024-05-09T08:17:07.420Z,84.60
2024-05-09T08:19:38.089Z,83.80
2024-05-09T08:22:07.353Z,82.50
2024-05-09T08:24:38.051Z,82.60
2024-05-09T08:27:06.113Z,81.70
2024-05-09T08:29:37.301Z,80.20
2024-05-09T08:32:06.350Z,80.50
2024-05-09T08:34:36.606Z,79.00
2024-05-09T08:37:12.864Z,76.60
2024-05-09T08:39:46.376Z,76.30
2024-05-09T08:42:17.933Z,77.10
2024-05-09T08:44:49.741Z,77.10
2024-05-09T08:47:18.259Z,76.00
2024-05-09T08:49:51.082Z,72.30
2024-05-09T08:52:18.557Z,72.80
2024-05-09T08:54:49.757Z,72.60
2024-05-09T08:57:17.719Z,69.50
2024-05-09T08:59:51.015Z,71.70
2024-05-09T09:02:19.479Z,73.20
2024-05-09T09:05:03.741Z,72.30
2024-05-09T09:07:33.801Z,68.90
2024-05-09T09:10:08.566Z,67.00
2024-05-09T09:12:36.615Z,67.90
2024-05-09T09:15:07.461Z,66.00
2024-05-09T09:17:34.880Z,67.30
2024-05-09T09:20:08.927Z,65.70
2024-05-09T09:22:38.470Z,63.90
2024-05-09T09:25:08.860Z,67.20
2024-05-09T09:27:36.328Z,68.40
2024-05-09T09:30:18.507Z,64.20
2024-05-09T09:32:56.121Z,64.30
2024-05-09T09:35:29.033Z,65.40
2024-05-09T09:37:59.417Z,65.30
2024-05-09T09:40:33.142Z,61.70
2024-05-09T09:43:05.297Z,62.80
2024-05-09T09:45:36.731Z,61.00
2024-05-09T09:48:05.251Z,56.90
2024-05-09T09:50:37.800Z,59.20
2024-05-09T09:53:07.989Z,59.10
2024-05-09T09:55:38.735Z,54.80
2024-05-09T09:58:09.757Z,52.20
2024-05-09T10:00:42.748Z,53.60
2024-05-09T10:03:11.638Z,55.40
2024-05-09T10:05:45.398Z,55.70
2024-05-09T10:08:18.644Z,55.40
2024-05-09T10:10:50.533Z,54.30
2024-05-09T10:13:20.651Z,53.00
2024-05-09T10:15:54.951Z,55.10
2024-05-09T10:18:28.448Z,54.10
2024-05-09T10:21:01.011Z,55.20
2024-05-09T10:23:33.870Z,56.90
2024-05-09T10:26:06.673Z,55.20
2024-05-09T10:28:37.236Z,56.30
2024-05-09T10:31:17.701Z,53.40
2024-05-09T10:33:51.348Z,49.90
2024-05-09T10:36:29.920Z,52.20
2024-05-09T10:38:57.354Z,53.90
2024-05-09T10:41:27.390Z,51.00
2024-05-09T10:43:55.793Z,52.50
2024-05-09T10:46:27.748Z,51.00
2024-05-09T10:48:55.481Z,49.00
2024-05-09T10:51:25.879Z,50.30
2024-05-09T10:53:56.847Z,53.60
2024-05-09T10:56:27.034Z,49.90
2024-05-09T10:58:55.024Z,52.20
2024-05-09T11:01:25.738Z,51.60
2024-05-09T11:03:57.492Z,48.00
2024-05-09T11:06:29.127Z,52.80
2024-05-09T11:08:57.808Z,48.60
2024-05-09T11:11:30.065Z,51.80
2024-05-09T11:13:57.897Z,48.50
2024-05-09T11:16:28.401Z,48.10
2024-05-09T11:18:57.781Z,51.70
2024-05-09T11:21:28.286Z,51.10
2024-05-09T11:23:55.900Z,48.40
2024-05-09T11:26:29.651Z,52.40
2024-05-09T11:28:57.359Z,51.20
2024-05-09T11:31:28.130Z,50.20
2024-05-09T11:33:55.654Z,50.80
2024-05-09T11:36:25.885Z,50.10
2024-05-09T11:38:53.833Z,49.90
2024-05-09T11:41:23.977Z,49.20
2024-05-09T11:43:51.842Z,50.00
2024-05-09T11:46:22.099Z,48.30
2024-05-09T11:48:50.357Z,48.80
2024-05-09T11:51:20.555Z,47.50
2024-05-09T11:53:48.197Z,46.70
2024-05-09T11:56:19.009Z,49.30
2024-05-09T11:58:46.865Z,48.60
2024-05-09T12:01:20.330Z,47.80
2024-05-09T12:03:50.005Z,47.10
2024-05-09T12:06:21.158Z,46.20
2024-05-09T12:08:49.167Z,48.00
2024-05-09T12:11:19.506Z,48.20
2024-05-09T12:13:46.890Z,48.90
2024-05-09T12:16:17.794Z,48.30
2024-05-09T12:18:45.924Z,48.00
2024-05-09T12:21:18.112Z,47.50
2024-05-09T12:23:45.842Z,46.30
2024-05-09T12:26:17.427Z,47.30
2024-05-09T12:28:45.948Z,49.80
2024-05-09T12:31:20.558Z,49.40
2024-05-09T12:33:48.252Z,48.70
2024-05-09T12:36:19.389Z,50.00
2024-05-09T12:38:49.223Z,50.00
2024-05-09T12:41:19.951Z,49.90
2024-05-09T12:43:47.531Z,49.10
2024-05-09T12:46:20.546Z,49.70
2024-05-09T12:48:48.922Z,45.30
2024-05-09T12:51:19.275Z,46.80
2024-05-09T12:53:46.680Z,47.40
2024-05-09T12:56:17.913Z,48.40
2024-05-09T12:58:45.465Z,48.30
2024-05-09T13:01:15.785Z,46.50
2024-05-09T13:03:43.305Z,46.90
2024-05-09T13:06:14.239Z,47.10
2024-05-09T13:08:41.999Z,48.60
2024-05-09T13:11:13.306Z,49.80
2024-05-09T13:13:40.658Z,50.30
2024-05-09T13:16:11.071Z,47.50
2024-05-09T13:18:38.894Z,47.80
2024-05-09T13:21:09.443Z,47.90
2024-05-09T13:23:38.116Z,47.20
2024-05-09T13:26:08.359Z,47.80
2024-05-09T13:28:36.783Z,48.70
2024-05-09T13:31:07.642Z,49.70
2024-05-09T13:33:35.057Z,49.60
2024-05-09T13:36:05.271Z,49.20
2024-05-09T13:38:32.841Z,48.50
2024-05-09T13:41:02.952Z,46.20
2024-05-09T13:43:30.416Z,46.40
2024-05-09T13:46:01.500Z,49.90
2024-05-09T13:48:29.116Z,49.60
2024-05-09T13:50:59.796Z,47.00
2024-05-09T13:53:27.081Z,46.80
2024-05-09T13:55:57.490Z,48.20
2024-05-09T13:58:24.974Z,47.40
2024-05-09T14:00:55.457Z,49.60
2024-05-09T14:03:23.405Z,47.50
2024-05-09T14:05:54.399Z,48.00
2024-05-09T14:08:23.205Z,46.00
2024-05-09T14:10:54.087Z,51.00
2024-05-09T14:13:22.188Z,47.80
2024-05-09T14:15:52.664Z,49.50
2024-05-09T14:18:20.367Z,50.60
2024-05-09T14:20:51.209Z,49.40
2024-05-09T14:23:19.170Z,45.80
2024-05-09T14:25:52.192Z,46.30
2024-05-09T14:28:22.425Z,46.40
2024-05-09T14:30:53.527Z,47.30
2024-05-09T14:33:26.756Z,47.00
2024-05-09T14:35:57.302Z,47.60
2024-05-09T14:38:25.491Z,45.50
2024-05-09T14:40:56.043Z,46.90
2024-05-09T14:43:23.915Z,46.00
2024-05-09T14:45:56.131Z,47.70
2024-05-09T14:48:23.953Z,47.10
2024-05-09T14:50:57.266Z,49.30
2024-05-09T14:53:26.793Z,46.50
2024-05-09T14:55:57.783Z,47.90
2024-05-09T14:58:26.724Z,47.50
2024-05-09T15:00:57.454Z,46.60
2024-05-09T15:03:25.068Z,48.70
2024-05-09T15:05:55.884Z,47.90
2024-05-09T15:08:23.611Z,45.50
2024-05-09T15:10:54.597Z,49.40
2024-05-09T15:13:22.081Z,45.30
2024-05-09T15:15:52.614Z,45.30
2024-05-09T15:18:20.817Z,47.70
2024-05-09T15:20:51.443Z,47.80
2024-05-09T15:23:18.982Z,47.70
2024-05-09T15:25:49.661Z,48.10
2024-05-09T15:28:18.533Z,48.00
2024-05-09T15:30:49.047Z,48.20
2024-05-09T15:33:17.445Z,47.00
2024-05-09T15:35:48.220Z,46.30
2024-05-09T15:38:16.566Z,50.30
2024-05-09T15:40:47.444Z,48.60
2024-05-09T15:43:15.532Z,47.50
2024-05-09T15:45:48.089Z,48.50
2024-05-09T15:48:15.904Z,44.60
2024-05-09T15:50:46.608Z,44.80
2024-05-09T15:53:14.086Z,45.70
2024-05-09T15:55:45.462Z,48.20
2024-05-09T15:58:14.334Z,45.70
2024-05-09T16:00:47.141Z,46.70
2024-05-09T16:03:16.370Z,47.60
2024-05-09T16:05:48.751Z,45.80
2024-05-09T16:08:17.074Z,47.50
2024-05-09T16:10:49.450Z,45.60
2024-05-09T16:13:18.278Z,47.00
2024-05-09T16:15:48.892Z,47.00
2024-05-09T16:18:17.627Z,47.80
2024-05-09T16:20:51.084Z,47.10
2024-05-09T16:23:18.574Z,47.00
2024-05-09T16:25:49.201Z,45.40
2024-05-09T16:28:18.684Z,43.20
2024-05-09T16:30:49.483Z,39.50
2024-05-09T16:33:21.097Z,37.80
2024-05-09T16:35:51.687Z,34.40
2024-05-09T16:38:19.986Z,34.00
2024-05-09T16:40:51.142Z,33.90
2024-05-09T16:43:19.660Z,33.70
2024-05-09T16:45:50.350Z,33.20
2024-05-09T16:48:17.939Z,33.70
2024-05-09T16:50:48.584Z,33.20
2024-05-09T16:53:16.022Z,32.00
2024-05-09T16:55:46.654Z,31.40
2024-05-09T16:58:17.005Z,31.80
2024-05-09T17:00:47.603Z,31.80
2024-05-09T17:03:16.135Z,31.90
2024-05-09T17:05:48.516Z,32.30
2024-05-09T17:08:18.434Z,32.90
2024-05-09T17:10:52.098Z,33.80
2024-05-09T17:13:22.798Z,32.20
2024-05-09T17:15:53.531Z,32.00
2024-05-09T17:18:25.293Z,30.50
2024-05-09T17:20:53.284Z,30.40
2024-05-09T17:23:23.578Z,31.60
2024-05-09T17:25:51.239Z,31.30
2024-05-09T17:28:21.607Z,32.00
2024-05-09T17:30:49.689Z,31.30
2024-05-09T17:33:20.331Z,32.30
2024-05-09T17:35:50.906Z,31.90
2024-05-09T17:38:23.110Z,31.90
2024-05-09T17:40:53.419Z,33.00
2024-05-09T17:43:24.948Z,32.10
2024-05-09T17:45:52.524Z,32.70
2024-05-09T17:48:23.862Z,32.20
2024-05-09T17:50:52.030Z,33.50
2024-05-09T17:53:22.859Z,32.50
2024-05-09T17:55:50.402Z,33.60
2024-05-09T17:58:20.872Z,35.00
2024-05-09T18:00:48.810Z,36.60
2024-05-09T18:03:19.067Z,40.00
2024-05-09T18:05:47.207Z,41.60
2024-05-09T18:08:17.554Z,43.90
2024-05-09T18:10:45.327Z,44.50
2024-05-09T18:13:16.208Z,46.60
2024-05-09T18:15:45.306Z,47.70
2024-05-09T18:18:16.571Z,47.90
2024-05-09T18:20:45.949Z,48.90
2024-05-09T18:23:18.861Z,48.50
2024-05-09T18:25:48.082Z,49.10
2024-05-09T18:28:19.084Z,50.00
2024-05-09T18:30:47.009Z,53.40
2024-05-09T18:33:17.443Z,55.20
2024-05-09T18:35:45.940Z,56.10
2024-05-09T18:38:16.140Z,56.80
2024-05-09T18:40:46.143Z,57.80
2024-05-09T18:43:20.388Z,58.70
2024-05-09T18:45:51.706Z,59.40
2024-05-09T18:48:22.250Z,59.90
2024-05-09T18:50:53.951Z,60.40
2024-05-09T18:53:24.374Z,60.70
2024-05-09T18:55:59.433Z,61.30
2024-05-09T18:58:29.770Z,61.30
2024-05-09T19:00:59.977Z,61.70
2024-05-09T19:03:32.611Z,62.30
2024-05-09T19:06:03.176Z,63.00
2024-05-09T19:08:35.828Z,63.20
2024-05-09T19:11:05.625Z,63.70
2024-05-09T19:13:36.256Z,64.10
2024-05-09T19:16:04.605Z,64.60
2024-05-09T19:18:36.372Z,65.10
2024-05-09T19:21:04.540Z,65.50
2024-05-09T19:23:38.298Z,66.10
2024-05-09T19:26:10.036Z,66.30
2024-05-09T19:28:40.671Z,66.70
2024-05-09T19:31:08.596Z,66.90
2024-05-09T19:33:39.546Z,67.60
2024-05-09T19:36:07.594Z,68.50
2024-05-09T19:38:38.180Z,69.20
2024-05-09T19:41:05.764Z,69.70
2024-05-09T19:43:36.382Z,70.00
2024-05-09T19:46:04.103Z,70.10
2024-05-09T19:48:34.736Z,70.50
2024-05-09T19:51:03.123Z,70.70
2024-05-09T19:53:34.381Z,71.00
2024-05-09T19:56:02.062Z,71.40
2024-05-09T19:58:32.439Z,71.70
2024-05-09T20:01:00.155Z,72.40
2024-05-09T20:03:32.505Z,72.90
2024-05-09T20:06:00.794Z,73.40
2024-05-09T20:08:31.070Z,73.50
2024-05-09T20:10:58.726Z,73.60
2024-05-09T20:13:28.943Z,73.60
2024-05-09T20:15:56.874Z,73.60
2024-05-09T20:18:27.260Z,73.80
2024-05-09T20:20:55.476Z,74.00
2024-05-09T20:23:26.263Z,74.40
2024-05-09T20:25:57.030Z,74.80
2024-05-09T20:28:27.780Z,75.20
2024-05-09T20:30:55.444Z,75.60
2024-05-09T20:33:25.557Z,76.30
2024-05-09T20:35:55.732Z,76.60
2024-05-09T20:38:26.215Z,76.80
2024-05-09T20:40:53.684Z,77.10
2024-05-09T20:43:23.985Z,77.30
2024-05-09T20:45:51.743Z,77.50
2024-05-09T20:48:21.827Z,77.70
2024-05-09T20:50:49.255Z,77.80
2024-05-09T20:53:21.053Z,78.00
2024-05-09T20:55:48.796Z,78.10
2024-05-09T20:58:19.071Z,78.80
2024-05-09T21:00:46.836Z,79.00
2024-05-09T21:03:17.992Z,79.30
2024-05-09T21:05:47.321Z,79.40
2024-05-09T21:08:25.199Z,79.80
2024-05-09T21:10:53.341Z,80.10
2024-05-09T21:13:25.035Z,80.50
2024-05-09T21:15:52.684Z,80.70
2024-05-09T21:18:22.786Z,80.90
2024-05-09T21:20:50.274Z,80.90
2024-05-09T21:23:26.441Z,81.00
2024-05-09T21:25:53.727Z,81.30
2024-05-09T21:28:24.145Z,81.80
2024-05-09T21:30:51.732Z,81.40
2024-05-09T21:33:22.209Z,81.60
2024-05-09T21:35:49.565Z,82.00
2024-05-09T21:38:19.605Z,82.10
2024-05-09T21:40:47.128Z,82.20
2024-05-09T21:43:17.651Z,82.40
2024-05-09T21:45:45.389Z,82.50
2024-05-09T21:48:16.544Z,82.70
2024-05-09T21:50:43.963Z,83.10
2024-05-09T21:53:15.100Z,83.20
2024-05-09T21:55:43.153Z,83.20
2024-05-09T21:58:16.721Z,83.20
2024-05-09T22:00:46.604Z,83.30
2024-05-09T22:03:17.600Z,83.50
2024-05-09T22:05:45.669Z,84.30
2024-05-09T22:08:17.331Z,85.10
2024-05-09T22:10:55.455Z,86.30
2024-05-09T22:13:28.975Z,86.80
2024-05-09T22:15:57.886Z,87.50
2024-05-09T22:18:28.340Z,88.10
2024-05-09T22:20:56.937Z,88.00
2024-05-09T22:23:28.183Z,88.40
2024-05-09T22:25:56.016Z,88.90
2024-05-09T22:28:27.960Z,89.10
2024-05-09T22:30:56.051Z,88.80
2024-05-09T22:33:26.290Z,88.70
2024-05-09T22:35:53.893Z,88.40
2024-05-09T22:38:24.252Z,87.40
2024-05-09T22:40:52.601Z,86.80
2024-05-09T22:43:25.058Z,86.90
2024-05-09T22:45:55.122Z,87.20
2024-05-09T22:48:26.564Z,87.20
2024-05-09T22:50:54.927Z,87.50
2024-05-09T22:53:26.616Z,87.80
2024-05-09T22:55:54.702Z,88.30
2024-05-09T22:58:26.028Z,88.80
2024-05-09T23:00:53.868Z,89.50
2024-05-09T23:03:24.474Z,89.90
2024-05-09T23:05:51.946Z,90.20
2024-05-09T23:08:22.019Z,90.10
2024-05-09T23:10:49.457Z,90.30
2024-05-09T23:13:19.903Z,90.50
2024-05-09T23:15:47.734Z,90.60
2024-05-09T23:18:18.243Z,90.70
2024-05-09T23:20:45.962Z,90.90
2024-05-09T23:23:15.991Z,91.00
2024-05-09T23:25:43.956Z,91.00
2024-05-09T23:28:14.520Z,91.00
2024-05-09T23:30:42.515Z,91.00
2024-05-09T23:33:15.500Z,90.90
2024-05-09T23:35:44.439Z,90.70
2024-05-09T23:38:15.181Z,90.80
2024-05-09T23:40:43.243Z,90.90
2024-05-09T23:43:14.392Z,91.10
2024-05-09T23:45:43.239Z,91.20
2024-05-09T23:48:13.933Z,91.20
2024-05-09T23:50:42.025Z,91.60
2024-05-09T23:53:14.541Z,91.80
2024-05-09T23:55:42.074Z,91.40
2024-05-09T23:58:12.263Z,91.40
